createdAt,value
2018-12-30T00:00:29.186Z,1016.06
2018-12-30T00:01:30.042Z,1016.11
2018-12-30T00:02:29.923Z,1016.13
2018-12-30T00:03:30.246Z,1016.10
2018-12-30T00:04:30.787Z,1016.14
2018-12-30T00:05:30.682Z,1016.04
2018-12-30T00:06:31.171Z,1016.12
2018-12-30T00:07:31.575Z,1016.13
2018-12-30T00:08:31.856Z,1016.14
2018-12-30T00:09:32.449Z,1016.19
2018-12-30T00:10:32.327Z,1016.11
2018-12-30T00:11:33.136Z,1016.10
2018-12-30T00:12:33.030Z,1016.09
2018-12-30T00:13:34.064Z,1016.16
2018-12-30T00:14:34.091Z,1016.10
2018-12-30T00:15:34.267Z,1016.19
2018-12-30T00:16:35.014Z,1016.12
2018-12-30T00:17:35.423Z,1016.20
2018-12-30T00:18:35.733Z,1016.12
2018-12-30T00:19:42.594Z,1016.20
2018-12-30T00:20:36.089Z,1016.04
2018-12-30T00:21:36.126Z,1016.02
2018-12-30T00:22:36.171Z,1016.16
2018-12-30T00:23:36.188Z,1016.24
2018-12-30T00:24:36.694Z,1016.33
2018-12-30T00:25:36.718Z,1016.20
2018-12-30T00:26:36.821Z,1016.21
2018-12-30T00:27:36.916Z,1016.24
2018-12-30T00:28:37.127Z,1016.34
2018-12-30T00:29:37.126Z,1016.25
2018-12-30T00:30:37.433Z,1016.31
2018-12-30T00:31:37.640Z,1016.17
2018-12-30T00:32:37.811Z,1016.24
2018-12-30T00:33:38.186Z,1016.17
2018-12-30T00:34:38.372Z,1016.28
2018-12-30T00:35:38.502Z,1016.36
2018-12-30T00:36:38.872Z,1016.34
2018-12-30T00:37:38.939Z,1016.37
2018-12-30T00:38:39.189Z,1016.41
2018-12-30T00:39:39.315Z,1016.50
2018-12-30T00:40:39.525Z,1016.48
2018-12-30T00:41:39.438Z,1016.57
2018-12-30T00:42:39.459Z,1016.58
2018-12-30T00:43:39.860Z,1016.59
2018-12-30T00:44:40.142Z,1016.62
2018-12-30T00:45:40.510Z,1016.58
2018-12-30T00:46:41.118Z,1016.69
2018-12-30T00:47:40.904Z,1016.76
2018-12-30T00:48:41.404Z,1016.83
2018-12-30T00:49:41.957Z,1016.72
2018-12-30T00:50:42.452Z,1016.85
2018-12-30T00:51:42.925Z,1016.86
2018-12-30T00:52:43.480Z,1016.78
2018-12-30T00:53:43.396Z,1016.76
2018-12-30T00:54:43.788Z,1016.75
2018-12-30T00:55:43.804Z,1016.82
2018-12-30T00:56:44.219Z,1016.87
2018-12-30T00:57:44.622Z,1016.74
2018-12-30T00:58:45.144Z,1016.86
2018-12-30T00:59:45.040Z,1016.79
2018-12-30T01:00:44.986Z,1016.87
2018-12-30T01:01:45.277Z,1016.94
2018-12-30T01:02:45.672Z,1017.02
2018-12-30T01:03:47.132Z,1016.98
2018-12-30T01:04:46.411Z,1017.04
2018-12-30T01:05:46.423Z,1016.86
2018-12-30T01:06:46.882Z,1016.98
2018-12-30T01:07:47.416Z,1016.84
2018-12-30T01:08:47.264Z,1016.87
2018-12-30T01:09:47.667Z,1016.95
2018-12-30T01:10:48.464Z,1017.01
2018-12-30T01:11:48.971Z,1017.00
2018-12-30T01:12:49.193Z,1016.96
2018-12-30T01:13:49.247Z,1017.04
2018-12-30T01:14:49.721Z,1017.00
2018-12-30T01:15:49.931Z,1017.00
2018-12-30T01:16:50.148Z,1016.94
2018-12-30T01:17:50.459Z,1016.95
2018-12-30T01:18:50.672Z,1016.97
2018-12-30T01:19:50.882Z,1016.85
2018-12-30T01:20:51.010Z,1016.92
2018-12-30T01:21:51.302Z,1016.93
2018-12-30T01:22:51.408Z,1016.81
2018-12-30T01:23:51.428Z,1016.90
2018-12-30T01:24:51.527Z,1016.90
2018-12-30T01:25:51.632Z,1016.87
2018-12-30T01:26:51.539Z,1016.84
2018-12-30T01:27:51.947Z,1016.82
2018-12-30T01:28:52.333Z,1017.02
2018-12-30T01:29:52.499Z,1016.98
2018-12-30T01:30:52.620Z,1016.99
2018-12-30T01:31:52.731Z,1017.04
2018-12-30T01:32:52.867Z,1017.06
2018-12-30T01:33:52.994Z,1016.99
2018-12-30T01:34:53.042Z,1017.12
2018-12-30T01:35:53.144Z,1016.99
2018-12-30T01:36:53.244Z,1017.18
2018-12-30T01:37:53.548Z,1017.14
2018-12-30T01:38:53.736Z,1017.04
2018-12-30T01:39:53.900Z,1017.03
2018-12-30T01:40:53.918Z,1017.07
2018-12-30T01:41:54.784Z,1017.08
2018-12-30T01:42:54.552Z,1017.12
2018-12-30T01:43:54.923Z,1017.17
2018-12-30T01:44:55.284Z,1017.14
2018-12-30T01:45:55.591Z,1017.21
2018-12-30T01:46:55.916Z,1017.24
2018-12-30T01:47:56.207Z,1017.15
2018-12-30T01:48:56.512Z,1017.13
2018-12-30T01:49:56.921Z,1017.12
2018-12-30T01:50:57.316Z,1017.24
2018-12-30T01:51:57.745Z,1017.26
2018-12-30T01:52:58.104Z,1017.20
2018-12-30T01:53:58.387Z,1017.18
2018-12-30T01:54:58.981Z,1017.23
2018-12-30T01:55:58.830Z,1017.14
2018-12-30T01:56:59.149Z,1017.22
2018-12-30T01:57:59.439Z,1017.25
2018-12-30T01:59:00.058Z,1017.29
2018-12-30T02:00:00.171Z,1017.37
2018-12-30T02:00:59.950Z,1017.36
2018-12-30T02:02:00.379Z,1017.39
2018-12-30T02:03:01.068Z,1017.36
2018-12-30T02:04:01.097Z,1017.36
2018-12-30T02:06:01.508Z,1017.43
2018-12-30T02:07:01.725Z,1017.46
2018-12-30T02:08:01.881Z,1017.36
2018-12-30T02:09:02.331Z,1017.43
2018-12-30T02:10:02.361Z,1017.34
2018-12-30T02:11:02.642Z,1017.36
2018-12-30T02:12:03.091Z,1017.51
2018-12-30T02:13:03.509Z,1017.48
2018-12-30T02:14:04.542Z,1017.63
2018-12-30T02:15:04.246Z,1017.58
2018-12-30T02:16:04.657Z,1017.52
2018-12-30T02:17:04.866Z,1017.44
2018-12-30T02:18:04.948Z,1017.63
2018-12-30T02:19:05.088Z,1017.52
2018-12-30T02:20:05.208Z,1017.45
2018-12-30T02:21:05.523Z,1017.56
2018-12-30T02:22:05.923Z,1017.59
2018-12-30T02:23:06.243Z,1017.63
2018-12-30T02:24:06.553Z,1017.59
2018-12-30T02:25:06.660Z,1017.55
2018-12-30T02:26:07.083Z,1017.52
2018-12-30T02:27:07.139Z,1017.52
2018-12-30T02:28:07.400Z,1017.53
2018-12-30T02:29:07.411Z,1017.60
2018-12-30T02:30:07.329Z,1017.58
2018-12-30T02:31:07.826Z,1017.58
2018-12-30T02:32:07.955Z,1017.58
2018-12-30T02:33:08.251Z,1017.61
2018-12-30T02:34:08.310Z,1017.59
2018-12-30T02:35:08.592Z,1017.56
2018-12-30T02:36:09.086Z,1017.61
2018-12-30T02:37:08.897Z,1017.69
2018-12-30T02:38:09.626Z,1017.66
2018-12-30T02:39:09.649Z,1017.67
2018-12-30T02:40:09.491Z,1017.59
2018-12-30T02:41:09.874Z,1017.66
2018-12-30T02:42:10.664Z,1017.59
2018-12-30T02:43:10.760Z,1017.70
2018-12-30T02:44:10.649Z,1017.73
2018-12-30T02:45:11.194Z,1017.64
2018-12-30T02:46:11.053Z,1017.69
2018-12-30T02:47:11.639Z,1017.64
2018-12-30T02:48:11.869Z,1017.70
2018-12-30T02:49:11.661Z,1017.61
2018-12-30T02:50:12.104Z,1017.61
2018-12-30T02:51:12.637Z,1017.60
2018-12-30T02:52:12.757Z,1017.61
2018-12-30T02:53:12.652Z,1017.63
2018-12-30T02:54:13.111Z,1017.68
2018-12-30T02:55:14.351Z,1017.76
2018-12-30T02:56:13.600Z,1017.71
2018-12-30T02:57:13.982Z,1017.72
2018-12-30T02:58:14.377Z,1017.79
2018-12-30T02:59:14.696Z,1017.70
2018-12-30T03:00:15.278Z,1017.76
2018-12-30T03:01:15.306Z,1017.70
2018-12-30T03:02:15.395Z,1017.71
2018-12-30T03:03:15.133Z,1017.81
2018-12-30T03:04:15.469Z,1017.71
2018-12-30T03:05:16.150Z,1017.82
2018-12-30T03:06:16.081Z,1017.75
2018-12-30T03:07:16.419Z,1017.84
2018-12-30T03:08:17.009Z,1017.80
2018-12-30T03:09:16.803Z,1017.81
2018-12-30T03:10:17.601Z,1017.78
2018-12-30T03:12:17.715Z,1017.68
2018-12-30T03:13:17.485Z,1017.79
2018-12-30T03:14:18.456Z,1017.87
2018-12-30T03:15:19.080Z,1017.88
2018-12-30T03:16:19.500Z,1017.82
2018-12-30T03:17:20.023Z,1017.81
2018-12-30T03:18:19.816Z,1017.88
2018-12-30T03:19:20.237Z,1017.89
2018-12-30T03:20:20.446Z,1017.87
2018-12-30T03:21:20.854Z,1017.85
2018-12-30T03:22:21.371Z,1017.92
2018-12-30T03:23:21.044Z,1017.86
2018-12-30T03:24:21.182Z,1017.96
2018-12-30T03:25:21.156Z,1017.96
2018-12-30T03:26:21.915Z,1018.02
2018-12-30T03:27:21.810Z,1017.92
2018-12-30T03:28:22.734Z,1017.81
2018-12-30T03:29:22.425Z,1017.95
2018-12-30T03:30:22.471Z,1018.02
2018-12-30T03:31:22.620Z,1017.94
2018-12-30T03:32:22.800Z,1018.05
2018-12-30T03:33:22.887Z,1017.93
2018-12-30T03:34:23.088Z,1018.01
2018-12-30T03:35:23.302Z,1018.00
2018-12-30T03:36:23.491Z,1018.06
2018-12-30T03:37:23.652Z,1017.97
2018-12-30T03:38:23.774Z,1018.03
2018-12-30T03:39:23.958Z,1018.07
2018-12-30T03:40:23.952Z,1018.12
2018-12-30T03:41:24.054Z,1018.21
2018-12-30T03:42:25.133Z,1018.06
2018-12-30T03:43:24.502Z,1018.01
2018-12-30T03:44:25.047Z,1018.04
2018-12-30T03:45:24.821Z,1018.16
2018-12-30T03:46:25.154Z,1018.18
2018-12-30T03:47:25.462Z,1018.15
2018-12-30T03:48:25.771Z,1018.15
2018-12-30T03:49:26.103Z,1018.27
2018-12-30T03:50:26.707Z,1018.30
2018-12-30T03:51:26.648Z,1018.22
2018-12-30T03:52:27.350Z,1018.23
2018-12-30T03:53:27.416Z,1018.29
2018-12-30T03:54:27.680Z,1018.30
2018-12-30T03:55:28.072Z,1018.26
2018-12-30T03:56:28.393Z,1018.35
2018-12-30T03:57:28.801Z,1018.27
2018-12-30T03:58:29.371Z,1018.32
2018-12-30T03:59:29.222Z,1018.28
2018-12-30T04:00:29.499Z,1018.29
2018-12-30T04:01:30.223Z,1018.33
2018-12-30T04:02:30.322Z,1018.19
2018-12-30T04:03:30.079Z,1018.29
2018-12-30T04:04:30.380Z,1018.26
2018-12-30T04:05:30.686Z,1018.26
2018-12-30T04:06:31.110Z,1018.32
2018-12-30T04:07:31.490Z,1018.34
2018-12-30T04:08:31.828Z,1018.33
2018-12-30T04:09:32.316Z,1018.37
2018-12-30T04:10:32.802Z,1018.25
2018-12-30T04:11:33.874Z,1018.20
2018-12-30T04:12:33.975Z,1018.22
2018-12-30T04:13:34.203Z,1018.23
2018-12-30T04:14:34.407Z,1018.27
2018-12-30T04:15:34.731Z,1018.32
2018-12-30T04:16:35.032Z,1018.33
2018-12-30T04:17:35.453Z,1018.32
2018-12-30T04:18:35.718Z,1018.33
2018-12-30T04:19:35.874Z,1018.27
2018-12-30T04:20:35.828Z,1018.28
2018-12-30T04:21:36.399Z,1018.38
2018-12-30T04:22:36.610Z,1018.23
2018-12-30T04:23:36.720Z,1018.36
2018-12-30T04:24:36.829Z,1018.38
2018-12-30T04:25:36.939Z,1018.38
2018-12-30T04:26:37.037Z,1018.29
2018-12-30T04:27:37.041Z,1018.22
2018-12-30T04:28:37.362Z,1018.22
2018-12-30T04:29:37.574Z,1018.27
2018-12-30T04:30:37.749Z,1018.29
2018-12-30T04:31:37.851Z,1018.36
2018-12-30T04:32:38.091Z,1018.41
2018-12-30T04:34:38.302Z,1018.32
2018-12-30T04:35:38.543Z,1018.44
2018-12-30T04:36:38.750Z,1018.43
2018-12-30T04:37:38.944Z,1018.58
2018-12-30T04:38:39.946Z,1018.50
2018-12-30T04:39:39.087Z,1018.51
2018-12-30T04:40:39.388Z,1018.53
2018-12-30T04:41:39.705Z,1018.59
2018-12-30T04:42:39.711Z,1018.43
2018-12-30T04:43:39.724Z,1018.57
2018-12-30T04:44:40.079Z,1018.59
2018-12-30T04:45:40.369Z,1018.66
2018-12-30T04:46:40.626Z,1018.67
2018-12-30T04:47:42.145Z,1018.80
2018-12-30T04:48:40.945Z,1018.73
2018-12-30T04:49:41.262Z,1018.70
2018-12-30T04:50:41.705Z,1018.69
2018-12-30T04:51:42.227Z,1018.67
2018-12-30T04:52:42.232Z,1018.73
2018-12-30T04:53:42.225Z,1018.67
2018-12-30T04:54:42.129Z,1018.71
2018-12-30T04:55:42.513Z,1018.77
2018-12-30T04:56:42.987Z,1018.69
2018-12-30T04:57:43.362Z,1018.73
2018-12-30T04:58:43.738Z,1018.74
2018-12-30T04:59:44.055Z,1018.70
2018-12-30T05:00:44.462Z,1018.82
2018-12-30T05:01:44.898Z,1018.74
2018-12-30T05:02:45.741Z,1018.77
2018-12-30T05:03:45.772Z,1018.75
2018-12-30T05:04:45.551Z,1018.73
2018-12-30T05:05:46.120Z,1018.72
2018-12-30T05:06:46.124Z,1018.69
2018-12-30T05:07:46.052Z,1018.75
2018-12-30T05:08:46.437Z,1018.80
2018-12-30T05:09:46.782Z,1018.78
2018-12-30T05:10:47.076Z,1018.82
2018-12-30T05:11:47.443Z,1018.77
2018-12-30T05:12:48.206Z,1018.79
2018-12-30T05:13:48.311Z,1018.71
2018-12-30T05:14:48.837Z,1018.84
2018-12-30T05:15:48.647Z,1018.68
2018-12-30T05:16:49.354Z,1018.77
2018-12-30T05:17:49.567Z,1018.77
2018-12-30T05:18:49.987Z,1018.75
2018-12-30T05:19:50.413Z,1018.72
2018-12-30T05:20:50.823Z,1018.83
2018-12-30T05:21:50.967Z,1018.91
2018-12-30T05:22:51.027Z,1018.89
2018-12-30T05:23:51.350Z,1018.91
2018-12-30T05:24:51.481Z,1018.92
2018-12-30T05:25:51.577Z,1018.91
2018-12-30T05:26:51.676Z,1018.99
2018-12-30T05:27:51.679Z,1019.00
2018-12-30T05:28:51.982Z,1018.93
2018-12-30T05:29:51.907Z,1019.00
2018-12-30T05:30:52.257Z,1019.04
2018-12-30T05:31:52.508Z,1019.04
2018-12-30T05:32:52.585Z,1019.09
2018-12-30T05:33:52.666Z,1019.14
2018-12-30T05:34:52.891Z,1019.20
2018-12-30T05:35:53.072Z,1019.19
2018-12-30T05:36:53.372Z,1019.21
2018-12-30T05:37:53.618Z,1019.19
2018-12-30T05:38:53.916Z,1019.21
2018-12-30T05:39:54.025Z,1019.22
2018-12-30T05:40:54.044Z,1019.26
2018-12-30T05:41:54.145Z,1019.43
2018-12-30T05:42:54.157Z,1019.26
2018-12-30T05:43:54.274Z,1019.38
2018-12-30T05:44:54.352Z,1019.35
2018-12-30T05:45:54.333Z,1019.38
2018-12-30T05:46:54.684Z,1019.34
2018-12-30T05:47:55.020Z,1019.37
2018-12-30T05:48:55.423Z,1019.47
2018-12-30T05:49:55.699Z,1019.50
2018-12-30T05:50:56.252Z,1019.56
2018-12-30T05:51:56.208Z,1019.58
2018-12-30T05:52:56.770Z,1019.75
2018-12-30T05:53:56.579Z,1019.62
2018-12-30T05:54:57.077Z,1019.58
2018-12-30T05:55:57.408Z,1019.67
2018-12-30T05:56:57.795Z,1019.54
2018-12-30T05:57:58.147Z,1019.68
2018-12-30T05:58:58.861Z,1019.56
2018-12-30T05:59:58.680Z,1019.54
2018-12-30T06:00:59.335Z,1019.57
2018-12-30T06:01:59.281Z,1019.68
2018-12-30T06:02:59.622Z,1019.68
2018-12-30T06:04:00.005Z,1019.69
2018-12-30T06:05:00.440Z,1019.74
2018-12-30T06:06:01.176Z,1019.83
2018-12-30T06:07:01.667Z,1019.89
2018-12-30T06:08:01.427Z,1019.97
2018-12-30T06:09:01.251Z,1020.01
2018-12-30T06:10:01.611Z,1019.97
2018-12-30T06:11:02.133Z,1020.06
2018-12-30T06:12:02.238Z,1020.18
2018-12-30T06:13:02.518Z,1020.17
2018-12-30T06:14:02.720Z,1020.12
2018-12-30T06:15:02.836Z,1020.16
2018-12-30T06:16:03.869Z,1020.29
2018-12-30T06:17:03.883Z,1020.27
2018-12-30T06:18:04.190Z,1020.35
2018-12-30T06:19:04.402Z,1020.29
2018-12-30T06:20:04.713Z,1020.35
2018-12-30T06:21:04.616Z,1020.33
2018-12-30T06:22:05.146Z,1020.36
2018-12-30T06:23:05.349Z,1020.35
2018-12-30T06:24:05.661Z,1020.44
2018-12-30T06:25:05.450Z,1020.48
2018-12-30T06:26:08.789Z,1020.43
2018-12-30T06:27:06.301Z,1020.39
2018-12-30T06:28:06.609Z,1020.39
2018-12-30T06:29:06.924Z,1020.47
2018-12-30T06:30:06.784Z,1020.52
2018-12-30T06:31:07.169Z,1020.49
2018-12-30T06:32:07.337Z,1020.55
2018-12-30T06:33:07.987Z,1020.52
2018-12-30T06:34:07.663Z,1020.59
2018-12-30T06:35:07.777Z,1020.59
2018-12-30T06:36:07.857Z,1020.66
2018-12-30T06:37:07.668Z,1020.61
2018-12-30T06:38:08.349Z,1020.49
2018-12-30T06:39:08.229Z,1020.57
2018-12-30T06:40:11.487Z,1020.46
2018-12-30T06:41:09.113Z,1020.60
2018-12-30T06:42:08.979Z,1020.65
2018-12-30T06:43:09.288Z,1020.63
2018-12-30T06:44:09.620Z,1020.63
2018-12-30T06:45:10.184Z,1020.77
2018-12-30T06:46:10.109Z,1020.73
2018-12-30T06:47:10.753Z,1020.65
2018-12-30T06:48:11.247Z,1020.66
2018-12-30T06:49:11.245Z,1020.70
2018-12-30T06:50:11.181Z,1020.69
2018-12-30T06:51:11.487Z,1020.68
2018-12-30T06:52:11.909Z,1020.73
2018-12-30T06:53:12.192Z,1020.72
2018-12-30T06:54:12.509Z,1020.76
2018-12-30T06:55:13.339Z,1020.72
2018-12-30T06:56:13.412Z,1020.74
2018-12-30T06:57:13.495Z,1020.75
2018-12-30T06:58:13.291Z,1020.72
2018-12-30T06:59:13.544Z,1020.74
2018-12-30T07:00:14.175Z,1020.71
2018-12-30T07:01:14.191Z,1020.65
2018-12-30T07:02:14.026Z,1020.74
2018-12-30T07:03:14.639Z,1020.63
2018-12-30T07:04:14.970Z,1020.68
2018-12-30T07:05:15.643Z,1020.67
2018-12-30T07:06:15.403Z,1020.70
2018-12-30T07:07:15.765Z,1020.71
2018-12-30T07:08:16.131Z,1020.62
2018-12-30T07:09:16.431Z,1020.60
2018-12-30T07:10:17.314Z,1020.67
2018-12-30T07:11:17.192Z,1020.65
2018-12-30T07:12:17.672Z,1020.62
2018-12-30T07:13:18.383Z,1020.66
2018-12-30T07:14:18.886Z,1020.73
2018-12-30T07:15:18.895Z,1020.71
2018-12-30T07:16:19.721Z,1020.71
2018-12-30T07:17:19.724Z,1020.76
2018-12-30T07:18:20.151Z,1020.67
2018-12-30T07:19:20.565Z,1020.72
2018-12-30T07:20:20.670Z,1020.61
2018-12-30T07:21:21.083Z,1020.79
2018-12-30T07:22:21.223Z,1020.75
2018-12-30T07:23:21.159Z,1020.85
2018-12-30T07:24:22.027Z,1020.94
2018-12-30T07:25:22.122Z,1020.93
2018-12-30T07:26:22.026Z,1020.98
2018-12-30T07:27:22.418Z,1021.00
2018-12-30T07:28:22.494Z,1020.93
2018-12-30T07:29:22.564Z,1021.00
2018-12-30T07:30:22.631Z,1021.00
2018-12-30T07:31:22.712Z,1020.98
2018-12-30T07:32:22.876Z,1020.99
2018-12-30T07:33:23.213Z,1021.07
2018-12-30T07:34:23.506Z,1021.04
2018-12-30T07:36:23.862Z,1021.06
2018-12-30T07:37:24.129Z,1021.19
2018-12-30T07:38:24.243Z,1021.28
2018-12-30T07:39:24.242Z,1021.34
2018-12-30T07:40:24.762Z,1021.37
2018-12-30T07:41:24.735Z,1021.36
2018-12-30T07:42:25.101Z,1021.36
2018-12-30T07:43:25.502Z,1021.34
2018-12-30T07:44:26.080Z,1021.33
2018-12-30T07:45:26.364Z,1021.41
2018-12-30T07:46:26.188Z,1021.53
2018-12-30T07:47:26.505Z,1021.52
2018-12-30T07:48:26.978Z,1021.57
2018-12-30T07:49:27.421Z,1021.60
2018-12-30T07:50:27.763Z,1021.63
2018-12-30T07:51:28.069Z,1021.64
2018-12-30T07:52:28.386Z,1021.65
2018-12-30T07:53:28.701Z,1021.69
2018-12-30T07:54:29.399Z,1021.64
2018-12-30T07:55:29.222Z,1021.73
2018-12-30T07:56:29.705Z,1021.75
2018-12-30T07:57:30.174Z,1021.81
2018-12-30T07:58:30.477Z,1021.75
2018-12-30T07:59:30.851Z,1021.77
2018-12-30T08:00:31.136Z,1021.82
2018-12-30T08:01:31.419Z,1021.91
2018-12-30T08:02:31.861Z,1021.83
2018-12-30T08:03:32.247Z,1021.85
2018-12-30T08:04:32.561Z,1021.86
2018-12-30T08:05:33.149Z,1021.88
2018-12-30T08:06:33.170Z,1021.88
2018-12-30T08:07:33.269Z,1021.85
2018-12-30T08:08:33.889Z,1021.77
2018-12-30T08:09:33.699Z,1021.77
2018-12-30T08:10:34.311Z,1021.77
2018-12-30T08:11:34.622Z,1021.75
2018-12-30T08:12:34.942Z,1021.76
2018-12-30T08:13:35.148Z,1021.79
2018-12-30T08:14:35.267Z,1021.79
2018-12-30T08:15:35.674Z,1021.82
2018-12-30T08:16:36.090Z,1021.74
2018-12-30T08:17:36.306Z,1021.78
2018-12-30T08:18:36.429Z,1021.77
2018-12-30T08:19:36.642Z,1021.76
2018-12-30T08:20:36.834Z,1021.74
2018-12-30T08:21:36.738Z,1021.72
2018-12-30T08:22:37.142Z,1021.70
2018-12-30T08:23:37.524Z,1021.69
2018-12-30T08:24:37.602Z,1021.69
2018-12-30T08:25:37.750Z,1021.77
2018-12-30T08:26:37.843Z,1021.77
2018-12-30T08:27:38.047Z,1021.77
2018-12-30T08:28:38.276Z,1021.85
2018-12-30T08:29:38.533Z,1021.96
2018-12-30T08:30:38.776Z,1021.96
2018-12-30T08:31:38.911Z,1021.98
2018-12-30T08:32:38.966Z,1022.00
2018-12-30T08:33:38.974Z,1022.02
2018-12-30T08:34:39.040Z,1022.00
2018-12-30T08:35:39.193Z,1021.96
2018-12-30T08:36:39.117Z,1021.96
2018-12-30T08:37:39.736Z,1021.99
2018-12-30T08:38:39.556Z,1021.99
2018-12-30T08:39:39.979Z,1021.98
2018-12-30T08:40:40.429Z,1022.01
2018-12-30T08:41:40.290Z,1022.04
2018-12-30T08:42:40.647Z,1021.90
2018-12-30T08:43:40.758Z,1021.96
2018-12-30T08:44:41.803Z,1021.94
2018-12-30T08:45:41.663Z,1021.93
2018-12-30T08:46:41.952Z,1021.93
2018-12-30T08:47:42.266Z,1021.95
2018-12-30T08:49:42.588Z,1021.95
2018-12-30T08:50:42.989Z,1021.97
2018-12-30T08:51:43.306Z,1021.99
2018-12-30T08:52:43.619Z,1021.99
2018-12-30T08:53:44.141Z,1022.02
2018-12-30T08:54:44.494Z,1022.07
2018-12-30T08:55:44.520Z,1022.04
2018-12-30T08:56:44.393Z,1022.08
2018-12-30T08:57:44.727Z,1021.97
2018-12-30T08:58:44.995Z,1022.13
2018-12-30T08:59:45.459Z,1022.08
2018-12-30T09:00:45.885Z,1022.08
2018-12-30T09:01:46.338Z,1022.09
2018-12-30T09:02:46.694Z,1022.09
2018-12-30T09:03:47.281Z,1022.14
2018-12-30T09:04:47.268Z,1022.06
2018-12-30T09:05:47.654Z,1022.08
2018-12-30T09:06:48.500Z,1022.18
2018-12-30T09:07:49.226Z,1022.12
2018-12-30T09:08:49.230Z,1022.15
2018-12-30T09:09:50.071Z,1022.22
2018-12-30T09:10:50.478Z,1022.26
2018-12-30T09:11:51.914Z,1022.26
2018-12-30T09:12:50.898Z,1022.29
2018-12-30T09:13:51.621Z,1022.26
2018-12-30T09:14:52.140Z,1022.26
2018-12-30T09:15:51.721Z,1022.28
2018-12-30T09:16:52.055Z,1022.34
2018-12-30T09:17:51.949Z,1022.32
2018-12-30T09:18:52.373Z,1022.29
2018-12-30T09:19:52.513Z,1022.24
2018-12-30T09:20:52.658Z,1022.26
2018-12-30T09:21:52.893Z,1022.26
2018-12-30T09:22:53.120Z,1022.29
2018-12-30T09:24:53.436Z,1022.26
2018-12-30T09:25:53.850Z,1022.27
2018-12-30T09:26:53.818Z,1022.28
2018-12-30T09:27:54.419Z,1022.38
2018-12-30T09:28:54.417Z,1022.36
2018-12-30T09:29:54.896Z,1022.35
2018-12-30T09:30:55.238Z,1022.36
2018-12-30T09:31:55.516Z,1022.37
2018-12-30T09:32:55.995Z,1022.38
2018-12-30T09:33:56.576Z,1022.47
2018-12-30T09:34:56.657Z,1022.45
2018-12-30T09:35:56.527Z,1022.48
2018-12-30T09:36:56.937Z,1022.48
2018-12-30T09:37:57.235Z,1022.46
2018-12-30T09:38:57.503Z,1022.46
2018-12-30T09:39:57.873Z,1022.58
2018-12-30T09:40:58.550Z,1022.58
2018-12-30T09:41:58.496Z,1022.59
2018-12-30T09:42:58.861Z,1022.56
2018-12-30T09:43:59.233Z,1022.56
2018-12-30T09:44:59.305Z,1022.68
2018-12-30T09:45:59.896Z,1022.52
2018-12-30T09:47:00.136Z,1022.54
2018-12-30T09:48:00.412Z,1022.59
2018-12-30T09:49:00.697Z,1022.58
2018-12-30T09:50:01.083Z,1022.61
2018-12-30T09:51:01.887Z,1022.61
2018-12-30T09:52:01.923Z,1022.59
2018-12-30T09:53:02.303Z,1022.59
2018-12-30T09:54:02.686Z,1022.57
2018-12-30T09:55:02.804Z,1022.57
2018-12-30T09:56:03.355Z,1022.60
2018-12-30T09:57:03.065Z,1022.53
2018-12-30T09:58:03.540Z,1022.53
2018-12-30T10:00:04.207Z,1022.50
2018-12-30T10:01:04.521Z,1022.53
2018-12-30T10:02:04.526Z,1022.59
2018-12-30T10:03:04.952Z,1022.57
2018-12-30T10:04:05.255Z,1022.54
2018-12-30T10:05:05.569Z,1022.59
2018-12-30T10:06:05.674Z,1022.60
2018-12-30T10:07:05.886Z,1022.55
2018-12-30T10:08:06.414Z,1022.55
2018-12-30T10:09:06.313Z,1022.59
2018-12-30T10:10:06.520Z,1022.68
2018-12-30T10:11:06.732Z,1022.73
2018-12-30T10:12:06.788Z,1022.68
2018-12-30T10:13:07.122Z,1022.78
2018-12-30T10:14:07.249Z,1022.79
2018-12-30T10:15:10.095Z,1022.68
2018-12-30T10:16:07.720Z,1022.79
2018-12-30T10:17:07.541Z,1022.76
2018-12-30T10:18:07.866Z,1022.72
2018-12-30T10:19:08.333Z,1022.81
2018-12-30T10:20:09.211Z,1022.82
2018-12-30T10:21:09.232Z,1022.82
2018-12-30T10:23:09.215Z,1022.80
2018-12-30T10:24:09.618Z,1022.92
2018-12-30T10:25:11.513Z,1022.93
2018-12-30T10:26:10.564Z,1022.90
2018-12-30T10:27:10.540Z,1022.93
2018-12-30T10:28:10.834Z,1022.87
2018-12-30T10:29:11.207Z,1022.77
2018-12-30T10:30:11.526Z,1022.87
2018-12-30T10:31:11.822Z,1022.72
2018-12-30T10:32:12.117Z,1022.63
2018-12-30T10:33:12.547Z,1022.63
2018-12-30T10:35:13.159Z,1022.73
2018-12-30T10:36:13.388Z,1022.73
2018-12-30T10:37:13.315Z,1022.65
2018-12-30T10:38:13.754Z,1022.78
2018-12-30T10:39:13.744Z,1022.76
2018-12-30T10:40:14.502Z,1022.76
2018-12-30T10:41:14.508Z,1022.75
2018-12-30T10:42:14.367Z,1022.73
2018-12-30T10:43:14.800Z,1022.76
2018-12-30T10:44:15.370Z,1022.79
2018-12-30T10:45:15.648Z,1022.79
2018-12-30T10:46:15.862Z,1022.70
2018-12-30T10:47:15.745Z,1022.70
2018-12-30T10:48:16.185Z,1022.76
2018-12-30T10:49:16.539Z,1022.75
2018-12-30T10:50:17.160Z,1022.72
2018-12-30T10:51:16.954Z,1022.71
2018-12-30T10:52:17.260Z,1022.68
2018-12-30T10:53:17.974Z,1022.63
2018-12-30T10:54:18.206Z,1022.66
2018-12-30T10:55:18.185Z,1022.68
2018-12-30T10:56:18.977Z,1022.70
2018-12-30T10:57:19.836Z,1022.78
2018-12-30T10:58:20.146Z,1022.76
2018-12-30T10:59:20.672Z,1022.77
2018-12-30T11:00:20.703Z,1022.86
2018-12-30T11:01:20.685Z,1022.83
2018-12-30T11:02:20.684Z,1022.84
2018-12-30T11:03:20.824Z,1022.85
2018-12-30T11:04:21.052Z,1022.86
2018-12-30T11:05:21.168Z,1022.87
2018-12-30T11:06:21.197Z,1022.92
2018-12-30T11:07:21.461Z,1022.92
2018-12-30T11:08:21.541Z,1022.93
2018-12-30T11:09:22.085Z,1022.94
2018-12-30T11:10:22.288Z,1022.95
2018-12-30T11:11:22.402Z,1022.94
2018-12-30T11:12:22.513Z,1023.01
2018-12-30T11:13:22.552Z,1023.00
2018-12-30T11:14:22.431Z,1022.98
2018-12-30T11:15:22.531Z,1023.03
2018-12-30T11:16:22.666Z,1023.00
2018-12-30T11:17:22.782Z,1022.95
2018-12-30T11:18:23.027Z,1022.96
2018-12-30T11:19:23.180Z,1022.96
2018-12-30T11:20:23.575Z,1023.00
2018-12-30T11:21:23.813Z,1022.92
2018-12-30T11:22:24.077Z,1022.92
2018-12-30T11:23:24.090Z,1022.85
2018-12-30T11:24:24.318Z,1022.87
2018-12-30T11:25:24.320Z,1022.87
2018-12-30T11:26:25.228Z,1022.86
2018-12-30T11:27:25.211Z,1022.88
2018-12-30T11:28:25.595Z,1022.87
2018-12-30T11:29:26.010Z,1022.92
2018-12-30T11:30:26.491Z,1022.91
2018-12-30T11:31:27.070Z,1022.91
2018-12-30T11:32:26.870Z,1022.91
2018-12-30T11:33:27.330Z,1022.83
2018-12-30T11:34:27.983Z,1022.82
2018-12-30T11:35:27.821Z,1022.82
2018-12-30T11:36:28.127Z,1022.84
2018-12-30T11:37:28.454Z,1022.86
2018-12-30T11:38:28.788Z,1022.85
2018-12-30T11:39:29.163Z,1022.82
2018-12-30T11:40:29.517Z,1022.66
2018-12-30T11:41:30.029Z,1022.66
2018-12-30T11:42:30.192Z,1022.66
2018-12-30T11:43:30.195Z,1022.64
2018-12-30T11:44:30.037Z,1022.60
2018-12-30T11:45:30.497Z,1022.60
2018-12-30T11:46:31.050Z,1022.58
2018-12-30T11:47:30.876Z,1022.57
2018-12-30T11:48:31.310Z,1022.50
2018-12-30T11:49:31.772Z,1022.50
2018-12-30T11:50:31.900Z,1022.48
2018-12-30T11:51:32.123Z,1022.44
2018-12-30T11:52:32.145Z,1022.43
2018-12-30T11:53:32.221Z,1022.42
2018-12-30T11:54:32.319Z,1022.38
2018-12-30T11:55:32.187Z,1022.44
2018-12-30T11:56:32.594Z,1022.39
2018-12-30T11:57:33.766Z,1022.37
2018-12-30T11:58:33.676Z,1022.36
2018-12-30T11:59:34.302Z,1022.36
2018-12-30T12:00:34.714Z,1022.32
2018-12-30T12:01:34.919Z,1022.20
2018-12-30T12:02:35.238Z,1022.27
2018-12-30T12:03:35.655Z,1022.27
2018-12-30T12:04:35.858Z,1022.30
2018-12-30T12:05:36.182Z,1022.37
2018-12-30T12:06:36.005Z,1022.34
2018-12-30T12:07:36.093Z,1022.38
2018-12-30T12:08:36.914Z,1022.25
2018-12-30T12:09:36.925Z,1022.27
2018-12-30T12:10:38.660Z,1022.29
2018-12-30T12:11:37.209Z,1022.24
2018-12-30T12:12:37.497Z,1022.29
2018-12-30T12:13:37.760Z,1022.30
2018-12-30T12:14:38.046Z,1022.25
2018-12-30T12:15:38.401Z,1022.25
2018-12-30T12:16:38.777Z,1022.22
2018-12-30T12:17:39.052Z,1022.14